world map with SHA marked

SHA - Airport

This information may not be accurate or current and is not valid for navigation or flight planning. No warranty of fitness for any purpose is made or implied.

flag of China

Donate via PayPal

Additional information is available on the NEW Great Circle Mapper

Location
City:  Shanghai, Shanghai, China
Name:Shanghai Hongqiao International Airport
ICAO / IATA:ZSSS / SHA

Details
Type:Airport (Aerodrome, Airfield)
Use:Public/Civil
Latitude:31°12'N (31.197)
Longitude:121°20'E (121.335)
Elevation:10 ft (3 m)
Runways:2
Longest:11155 × 148 ft (3400 × 45 m)

Time
Timezone:UTC+8 (DST+10)
Local Time:

Weather
METAR:ZSSS  041400Z 12002MPS 070V150 CAVOK 09/02 Q1024 NOSIG
TAF:ZSSS  (expired)

Related Locations
Nearby:
Farthest:COC: 12404 mi / 19962 km
Concordia (San Antonio de Padua de la Concordia) [Comodoro Pierrestegui Airport], E, AR

Find:

   beyond  
but within

Other Information
Maps:
Links:
Sources:

  


 


Great Circle Mapper   Great Circle Mapper
Great Circle Mapper FAQ   Great Circle Mapper FAQ
  Karl's Home Page
KLSē   KLSē Home
   GC on Facebook
Airlines of the World   Airlines of the World
Donate via PayPal


Copyright © 2004-2019, Karl L. Swartz. All rights reserved.
All trademarks mentioned herein belong to their respective owners.

Please see credits for attribution and copyright information.

Karl Swartz <karl@kls2.com>
  Powered by FreeBSD
Valid HTML 4.01!
Labeled with ICRA
hCard Microformat
Geo Microformat